Time,TemperatureF,DewpointF,PressureIn,WindDirection,WindDirectionDegrees,WindSpeedMPH,WindSpeedGustMPH,Humidity,HourlyPrecipIn,Conditions,Clouds,dailyrainin,SoftwareType,DateUTC
2013-03-16 00:14:00,63.7,44.7,29.65,SSE,157,4.7,-999.0,50,-99.99,,,0.00,Acu-Link.com,2013-03-16 04:14:00,
2013-03-16 00:30:00,63.9,44.4,29.65,South,180,4.2,-999.0,49,-99.99,,,0.00,Acu-Link.com,2013-03-16 04:30:00,
2013-03-16 00:45:00,64.0,43.9,29.66,SSW,202,4.2,-999.0,48,-99.99,,,0.00,Acu-Link.com,2013-03-16 04:45:00,
2013-03-16 01:00:00,64.2,44.1,29.64,SW,225,2.2,-999.0,48,-99.99,,,0.00,Acu-Link.com,2013-03-16 05:00:00,
2013-03-16 01:15:00,64.2,44.1,29.65,West,270,2.2,-999.0,48,-99.99,,,0.00,Acu-Link.com,2013-03-16 05:15:00,
2013-03-16 01:31:00,63.9,43.8,29.64,SW,225,4.2,-999.0,48,-99.99,,,0.00,Acu-Link.com,2013-03-16 05:31:00,
2013-03-16 01:46:00,63.3,44.3,29.65,SSW,202,8.3,-999.0,50,-99.99,,,0.00,Acu-Link.com,2013-03-16 05:46:00,
2013-03-16 02:01:00,62.8,43.9,29.65,WSW,247,3.7,-999.0,50,-99.99,,,0.00,Acu-Link.com,2013-03-16 06:01:00,
2013-03-16 02:17:00,62.4,44.0,29.65,SW,225,2.2,-999.0,51,-99.99,,,0.00,Acu-Link.com,2013-03-16 06:17:00,
2013-03-16 02:32:00,61.9,44.1,29.65,SW,225,2.2,-999.0,52,-99.99,,,0.00,Acu-Link.com,2013-03-16 06:32:00,
2013-03-16 02:47:00,61.7,44.4,29.66,SW,225,2.7,-999.0,53,-99.99,,,0.00,Acu-Link.com,2013-03-16 06:47:00,
2013-03-16 03:02:00,61.2,44.4,29.65,SW,225,3.2,-999.0,54,-99.99,,,0.00,Acu-Link.com,2013-03-16 07:02:00,
2013-03-16 03:18:00,61.0,44.2,29.64,WSW,247,3.2,-999.0,54,-99.99,,,0.00,Acu-Link.com,2013-03-16 07:18:00,
2013-03-16 03:33:00,61.7,44.4,29.64,West,270,6.8,-999.0,53,-99.99,,,0.00,Acu-Link.com,2013-03-16 07:33:00,
2013-03-16 03:48:00,62.2,44.4,29.64,SSW,202,3.2,-999.0,52,-99.99,,,0.00,Acu-Link.com,2013-03-16 07:48:00,
2013-03-16 04:03:00,62.2,43.8,29.63,SW,225,3.2,-999.0,51,-99.99,,,0.00,Acu-Link.com,2013-03-16 08:03:00,
2013-03-16 04:18:00,62.1,43.8,29.63,SSE,157,7.8,-999.0,51,-99.99,,,0.00,Acu-Link.com,2013-03-16 08:18:00,
2013-03-16 04:33:00,60.3,42.1,29.63,ESE,112,2.2,-999.0,51,-99.99,,,0.00,Acu-Link.com,2013-03-16 08:33:00,
2013-03-16 04:49:00,61.9,44.1,29.62,SW,225,4.2,-999.0,52,-99.99,,,0.00,Acu-Link.com,2013-03-16 08:49:00,
2013-03-16 05:04:00,61.2,43.9,29.62,SSW,202,3.7,-999.0,53,-99.99,,,0.00,Acu-Link.com,2013-03-16 09:04:00,
2013-03-16 05:19:00,60.6,43.4,29.62,SW,225,6.8,-999.0,53,-99.99,,,0.00,Acu-Link.com,2013-03-16 09:19:00,
2013-03-16 05:34:00,60.8,43.6,29.63,SSE,157,3.7,-999.0,53,-99.99,,,0.00,Acu-Link.com,2013-03-16 09:34:00,
2013-03-16 05:49:00,60.3,43.1,29.64,SSW,202,2.7,-999.0,53,-99.99,,,0.00,Acu-Link.com,2013-03-16 09:49:00,
2013-03-16 06:04:00,60.3,43.1,29.63,SW,225,4.7,-999.0,53,-99.99,,,0.00,Acu-Link.com,2013-03-16 10:04:00,
2013-03-16 06:19:00,60.3,43.1,29.63,SW,225,6.8,-999.0,53,-99.99,,,0.00,Acu-Link.com,2013-03-16 10:19:00,
2013-03-16 06:34:00,60.4,42.7,29.64,SW,225,4.7,-999.0,52,-99.99,,,0.00,Acu-Link.com,2013-03-16 10:34:00,
2013-03-16 06:49:00,60.1,42.9,29.63,South,180,6.3,-999.0,53,-99.99,,,0.00,Acu-Link.com,2013-03-16 10:49:00,
2013-03-16 07:05:00,60.1,42.9,29.64,SW,225,4.7,-999.0,53,-99.99,,,0.00,Acu-Link.com,2013-03-16 11:05:00,
2013-03-16 07:20:00,60.1,42.4,29.63,South,180,8.9,-999.0,52,-99.99,,,0.00,Acu-Link.com,2013-03-16 11:20:00,
2013-03-16 07:35:00,59.9,42.2,29.63,South,180,4.2,-999.0,52,-99.99,,,0.00,Acu-Link.com,2013-03-16 11:35:00,
2013-03-16 07:50:00,59.9,42.2,29.63,SW,225,7.8,-999.0,52,-99.99,,,0.00,Acu-Link.com,2013-03-16 11:50:00,
2013-03-16 08:05:00,60.1,42.4,29.63,South,180,4.7,-999.0,52,-99.99,,,0.00,Acu-Link.com,2013-03-16 12:05:00,
2013-03-16 08:20:00,60.1,42.4,29.64,South,180,5.8,-999.0,52,-99.99,,,0.00,Acu-Link.com,2013-03-16 12:20:00,
2013-03-16 08:36:00,60.6,42.4,29.65,SSE,157,4.7,-999.0,51,-99.99,,,0.00,Acu-Link.com,2013-03-16 12:36:00,
2013-03-16 09:06:00,61.7,43.4,29.65,South,180,6.3,-999.0,51,-99.99,,,0.00,Acu-Link.com,2013-03-16 13:06:00,
2013-03-16 09:22:00,62.8,43.9,29.65,NW,315,6.8,-999.0,50,-99.99,,,0.00,Acu-Link.com,2013-03-16 13:22:00,
2013-03-16 09:37:00,63.5,44.0,29.65,South,180,7.3,-999.0,49,-99.99,,,0.00,Acu-Link.com,2013-03-16 13:37:00,
2013-03-16 09:52:00,63.9,44.4,29.64,South,180,7.8,-999.0,49,-99.99,,,0.00,Acu-Link.com,2013-03-16 13:52:00,
2013-03-16 10:08:00,64.9,45.3,29.65,SSE,157,7.3,-999.0,49,-99.99,,,0.00,Acu-Link.com,2013-03-16 14:08:00,
2013-03-16 10:23:00,65.3,45.6,29.64,SSW,202,5.3,-999.0,49,-99.99,,,0.00,Acu-Link.com,2013-03-16 14:23:00,
2013-03-16 10:38:00,66.2,47.0,29.64,South,180,10.4,-999.0,50,-99.99,,,0.00,Acu-Link.com,2013-03-16 14:38:00,
2013-03-16 10:53:00,66.7,46.9,29.63,South,180,4.7,-999.0,49,-99.99,,,0.00,Acu-Link.com,2013-03-16 14:53:00,
2013-03-16 11:08:00,67.5,47.7,29.63,SW,225,3.7,-999.0,49,-99.99,,,0.00,Acu-Link.com,2013-03-16 15:08:00,
2013-03-16 11:24:00,68.5,47.5,29.63,WSW,247,5.8,-999.0,47,-99.99,,,0.00,Acu-Link.com,2013-03-16 15:24:00,
2013-03-16 11:39:00,67.8,47.4,29.62,SSW,202,12.5,-999.0,48,-99.99,,,0.00,Acu-Link.com,2013-03-16 15:39:00,
2013-03-16 11:54:00,70.0,48.3,29.61,SSE,157,9.9,-999.0,46,-99.99,,,0.00,Acu-Link.com,2013-03-16 15:54:00,
2013-03-16 12:10:00,70.2,49.0,29.62,South,180,7.3,-999.0,47,-99.99,,,0.00,Acu-Link.com,2013-03-16 16:10:00,
2013-03-16 12:25:00,73.0,48.5,29.61,SW,225,4.2,-999.0,42,-99.99,,,0.00,Acu-Link.com,2013-03-16 16:25:00,
2013-03-16 12:40:00,73.4,48.9,29.61,West,270,7.3,-999.0,42,-99.99,,,0.00,Acu-Link.com,2013-03-16 16:40:00,
2013-03-16 12:55:00,73.2,48.7,29.61,SSW,202,4.7,-999.0,42,-99.99,,,0.00,Acu-Link.com,2013-03-16 16:55:00,
2013-03-16 13:11:00,73.2,48.7,29.60,SE,135,8.3,-999.0,42,-99.99,,,0.00,Acu-Link.com,2013-03-16 17:11:00,
2013-03-16 13:26:00,71.8,48.1,29.60,SSW,202,7.8,-999.0,43,-99.99,,,0.00,Acu-Link.com,2013-03-16 17:26:00,
2013-03-16 13:41:00,71.8,48.7,29.60,SW,225,3.7,-999.0,44,-99.99,,,0.00,Acu-Link.com,2013-03-16 17:41:00,
2013-03-16 13:56:00,72.0,49.5,29.60,West,270,5.3,-999.0,45,-99.99,,,0.00,Acu-Link.com,2013-03-16 17:56:00,
2013-03-16 14:11:00,75.4,48.7,29.59,SSW,202,4.2,-999.0,39,-99.99,,,0.00,Acu-Link.com,2013-03-16 18:11:00,
2013-03-16 14:41:00,74.5,48.6,29.57,SSE,157,4.2,-999.0,40,-99.99,,,0.00,Acu-Link.com,2013-03-16 18:41:00,
2013-03-16 14:56:00,78.1,49.0,29.57,South,180,3.2,-999.0,36,-99.99,,,0.00,Acu-Link.com,2013-03-16 18:56:00,
2013-03-16 15:11:00,77.9,48.8,29.56,SW,225,4.7,-999.0,36,-99.99,,,0.00,Acu-Link.com,2013-03-16 19:11:00,
2013-03-16 15:42:00,78.8,48.0,29.54,West,270,6.8,-999.0,34,-99.99,,,0.00,Acu-Link.com,2013-03-16 19:42:00,
2013-03-16 15:57:00,78.6,48.6,29.54,West,270,5.8,-999.0,35,-99.99,,,0.00,Acu-Link.com,2013-03-16 19:57:00,
2013-03-16 16:13:00,79.0,48.2,29.52,ESE,112,9.4,-999.0,34,-99.99,,,0.00,Acu-Link.com,2013-03-16 20:13:00,
2013-03-16 16:28:00,80.1,49.2,29.52,West,270,13.5,-999.0,34,-99.99,,,0.00,Acu-Link.com,2013-03-16 20:28:00,
2013-03-16 16:43:00,80.8,48.2,29.53,WSW,247,13.5,-999.0,32,-99.99,,,0.00,Acu-Link.com,2013-03-16 20:43:00,
2013-03-16 16:58:00,80.1,48.4,29.52,WSW,247,3.7,-999.0,33,-99.99,,,0.00,Acu-Link.com,2013-03-16 20:58:00,
2013-03-16 17:14:00,78.4,47.7,29.53,SW,225,4.7,-999.0,34,-99.99,,,0.00,Acu-Link.com,2013-03-16 21:14:00,
2013-03-16 17:29:00,75.7,48.3,29.54,West,270,4.7,-999.0,38,-99.99,,,0.00,Acu-Link.com,2013-03-16 21:29:00,
2013-03-16 17:45:00,75.4,48.0,29.54,WSW,247,8.3,-999.0,38,-99.99,,,0.00,Acu-Link.com,2013-03-16 21:45:00,
2013-03-16 18:00:00,75.0,47.7,29.55,West,270,5.8,-999.0,38,-99.99,,,0.00,Acu-Link.com,2013-03-16 22:00:00,
2013-03-16 18:15:00,73.9,48.0,29.55,West,270,4.7,-999.0,40,-99.99,,,0.00,Acu-Link.com,2013-03-16 22:15:00,
2013-03-16 18:30:00,73.6,48.4,29.56,WSW,247,2.2,-999.0,41,-99.99,,,0.00,Acu-Link.com,2013-03-16 22:30:00,
2013-03-16 18:45:00,73.4,48.3,29.56,WSW,247,4.7,-999.0,41,-99.99,,,0.00,Acu-Link.com,2013-03-16 22:45:00,
2013-03-16 19:00:00,73.0,48.5,29.56,South,180,3.7,-999.0,42,-99.99,,,0.00,Acu-Link.com,2013-03-16 23:00:00,
2013-03-16 19:16:00,72.5,48.7,29.57,WSW,247,2.7,-999.0,43,-99.99,,,0.00,Acu-Link.com,2013-03-16 23:16:00,
2013-03-16 19:46:00,71.4,48.9,29.58,West,270,2.7,-999.0,45,-99.99,,,0.00,Acu-Link.com,2013-03-16 23:46:00,
2013-03-16 20:02:00,70.5,48.7,29.59,South,180,1.7,-999.0,46,-99.99,,,0.00,Acu-Link.com,2013-03-17 00:02:00,
2013-03-16 20:17:00,70.0,48.8,29.60,WSW,247,0.0,-999.0,47,-99.99,,,0.00,Acu-Link.com,2013-03-17 00:17:00,
2013-03-16 20:32:00,69.1,48.6,29.60,SE,135,0.0,-999.0,48,-99.99,,,0.00,Acu-Link.com,2013-03-17 00:32:00,
2013-03-16 20:48:00,68.4,48.5,29.60,SSE,157,0.0,-999.0,49,-99.99,,,0.00,Acu-Link.com,2013-03-17 00:48:00,
2013-03-16 21:03:00,67.6,48.3,29.61,SSE,157,0.0,-999.0,50,-99.99,,,0.00,Acu-Link.com,2013-03-17 01:03:00,
2013-03-16 21:18:00,67.3,48.5,29.61,SSE,157,1.7,-999.0,51,-99.99,,,0.00,Acu-Link.com,2013-03-17 01:18:00,
2013-03-16 21:33:00,66.9,48.2,29.63,WSW,247,0.0,-999.0,51,-99.99,,,0.00,Acu-Link.com,2013-03-17 01:33:00,
2013-03-16 21:48:00,66.6,48.4,29.63,WSW,247,1.1,-999.0,52,-99.99,,,0.00,Acu-Link.com,2013-03-17 01:48:00,
2013-03-16 22:04:00,66.0,47.3,29.63,South,180,1.7,-999.0,51,-99.99,,,0.00,Acu-Link.com,2013-03-17 02:04:00,
2013-03-16 22:19:00,66.0,46.8,29.63,West,270,1.7,-999.0,50,-99.99,,,0.00,Acu-Link.com,2013-03-17 02:19:00,
2013-03-16 22:34:00,64.8,46.2,29.63,SW,225,1.1,-999.0,51,-99.99,,,0.00,Acu-Link.com,2013-03-17 02:34:00,
2013-03-16 22:49:00,64.0,46.0,29.64,SSW,202,1.1,-999.0,52,-99.99,,,0.00,Acu-Link.com,2013-03-17 02:49:00,
2013-03-16 23:05:00,63.3,45.9,29.66,West,270,1.7,-999.0,53,-99.99,,,0.00,Acu-Link.com,2013-03-17 03:05:00,
2013-03-16 23:20:00,63.0,46.6,29.66,SSE,157,2.2,-999.0,55,-99.99,,,0.00,Acu-Link.com,2013-03-17 03:20:00,
2013-03-16 23:35:00,62.8,46.9,29.66,SSW,202,1.1,-999.0,56,-99.99,,,0.00,Acu-Link.com,2013-03-17 03:35:00,
2013-03-16 23:50:00,62.8,46.4,29.67,WSW,247,2.2,-999.0,55,-99.99,,,0.00,Acu-Link.com,2013-03-17 03:50:00,